MSC Suez — HPMS — position and weather

sailwx.info

Track history (hours):
 
Tides and Currents Weather Stations Pressure Air Temp Water Temp Dewpoint Dewpoint Depression Visibility Wind Speed Wind Dir Waves Ship Positions

MSC Suez

Last reported at 2016-Nov-29 19:08 UTC. Time now 2016-Dec-05 12:33 UTC.
Position N 08°43' W 015°20'.

Length 237 m; draft 11.1 m.

Type: Ship. MMSI: 355289000.

Date/timePositionNaut miles runAvg speedWind from/ knotsBaromVisibWave heightAir tempDewpointWater temp
2016-Nov-29 19:08N 08°43' W 015°20'32813.7
2016-Nov-28 19:12N 13°47' W 017°25'1015.2
2016-Nov-28 18:33N 13°57' W 017°24'2914.5
2016-Nov-28 16:31N 14°26' W 017°21'3 2.5
2016-Nov-28 15:24N 14°28' W 017°24'1113.1
2016-Nov-28 14:33N 14°39' W 017°23'3 3.4
2016-Nov-28 13:33N 14°41' W 017°26'0 0.0
2016-Nov-28 12:33N 14°41' W 017°26'0 0.0
2016-Nov-28 11:33N 14°41' W 017°26'0 0.0
2016-Nov-28 10:33N 14°41' W 017°26'0 0.0
2016-Nov-28 09:33N 14°41' W 017°26'0 0.0
2016-Nov-28 08:33N 14°41' W 017°26'0 0.4
2016-Nov-28 07:33N 14°41' W 017°25'3 3.2
2016-Nov-28 06:33N 14°39' W 017°23'2 2.0
2016-Nov-28 05:34N 14°37' W 017°23'5 1.8
2016-Nov-28 02:32N 14°32' W 017°23'1 1.0
2016-Nov-28 01:24N 14°32' W 017°24'38 9.6
2016-Nov-27 21:27N 15°08' W 017°37'  
2016-Nov-25 15:07N 27°31' W 015°25'1119.0
2016-Nov-25 14:33N 27°41' W 015°21'1818.5
2016-Nov-25 13:33N 27°59' W 015°18'1010.0
2016-Nov-25 12:31N 28°08' W 015°25'0 0.0
2016-Nov-25 11:31N 28°08' W 015°25'0 0.0
2016-Nov-25 10:31N 28°08' W 015°25'0 0.0
2016-Nov-25 09:31N 28°08' W 015°25'0 0.0
2016-Nov-25 08:31N 28°08' W 015°25'0 0.0
2016-Nov-25 07:31N 28°08' W 015°25'0 0.0
2016-Nov-25 06:31N 28°08' W 015°25'0 0.0
2016-Nov-25 05:31N 28°08' W 015°25'0 0.0
2016-Nov-25 04:31N 28°08' W 015°25'0 0.0
2016-Nov-25 03:31N 28°08' W 015°25'0 0.0
2016-Nov-25 02:31N 28°08' W 015°25'2 1.8
2016-Nov-25 01:33N 28°07' W 015°23'1514.6
2016-Nov-25 00:33N 28°21' W 015°19'1918.7
2016-Nov-24 23:33N 28°39' W 015°14'1919.0
2016-Nov-24 22:32N 28°58' W 015°08'  
2016-Nov-21 17:33N 49°51' W 003°20'5216.9
2016-Nov-21 14:30N 50°02' W 002°02'1515.8
2016-Nov-21 13:33N 49°57' W 001°40'1515.4
2016-Nov-21 12:33N 49°51' W 001°18'1515.3
2016-Nov-21 11:33N 49°45' W 000°56'1716.9
2016-Nov-21 10:33N 49°38' W 000°32'2914.3
2016-Nov-21 08:33N 49°28' E 000°09'0 0.0
2016-Nov-21 07:33N 49°28' E 000°09'0 0.0
2016-Nov-21 05:33N 49°28' E 000°09'0 0.0
2016-Nov-21 04:33N 49°28' E 000°09'0 0.0
2016-Nov-21 02:33N 49°28' E 000°09'0 0.0
2016-Nov-21 00:33N 49°28' E 000°09'1 0.4
2016-Nov-20 22:33N 49°28' E 000°08'1110.5
2016-Nov-20 21:33N 49°32' W 000°07'6115.3
2016-Nov-20 17:33N 50°31' E 000°16'1816.7
2016-Nov-20 16:29N 50°37' E 000°42'2914.9
2016-Nov-20 14:33N 50°55' E 001°18'1313.2
2016-Nov-20 13:33N 51°05' E 001°32'1414.2
2016-Nov-20 12:33N 51°15' E 001°48'3411.3
2016-Nov-20 09:33N 51°22' E 002°41'10 9.6
2016-Nov-20 08:33N 51°23' E 002°56'1414.3
2016-Nov-20 07:33N 51°24' E 003°19'1211.9
2016-Nov-20 06:33N 51°26' E 003°38'1211.9
2016-Nov-20 05:33N 51°23' E 003°56'8 7.9
2016-Nov-20 04:33N 51°22' E 004°09'6 6.5
2016-Nov-20 03:33N 51°18' E 004°16'1 0.5
2016-Nov-20 01:33N 51°17' E 004°15'0 0.0
2016-Nov-19 23:33N 51°17' E 004°15'0 0.0
2016-Nov-19 22:33N 51°17' E 004°15'0 0.0
2016-Nov-19 20:33N 51°17' E 004°15'0 0.0
2016-Nov-19 19:33N 51°17' E 004°15'  
Track history (hours):
 
Tides and Currents Weather Stations Pressure Air Temp Water Temp Dewpoint Dewpoint Depression Visibility Wind Speed Wind Dir Waves Ship Positions

MSC Suez

Last reported at 2016-Nov-29 19:08 UTC. Time now 2016-Dec-05 12:33 UTC.
Position N 08°43' W 015°20'.

Length 237 m; draft 11.1 m.

Type: Ship. MMSI: 355289000.

Date/timePositionNaut miles runAvg speedWind from/ knotsBaromVisibWave heightAir tempDewpointWater temp
2016-Nov-29 19:08N 08°43' W 015°20'32813.7
2016-Nov-28 19:12N 13°47' W 017°25'1015.2
2016-Nov-28 18:33N 13°57' W 017°24'2914.5
2016-Nov-28 16:31N 14°26' W 017°21'3 2.5
2016-Nov-28 15:24N 14°28' W 017°24'1113.1
2016-Nov-28 14:33N 14°39' W 017°23'3 3.4
2016-Nov-28 13:33N 14°41' W 017°26'0 0.0
2016-Nov-28 12:33N 14°41' W 017°26'0 0.0
2016-Nov-28 11:33N 14°41' W 017°26'0 0.0
2016-Nov-28 10:33N 14°41' W 017°26'0 0.0
2016-Nov-28 09:33N 14°41' W 017°26'0 0.0
2016-Nov-28 08:33N 14°41' W 017°26'0 0.4
2016-Nov-28 07:33N 14°41' W 017°25'3 3.2
2016-Nov-28 06:33N 14°39' W 017°23'2 2.0
2016-Nov-28 05:34N 14°37' W 017°23'5 1.8
2016-Nov-28 02:32N 14°32' W 017°23'1 1.0
2016-Nov-28 01:24N 14°32' W 017°24'38 9.6
2016-Nov-27 21:27N 15°08' W 017°37'  
2016-Nov-25 15:07N 27°31' W 015°25'1119.0
2016-Nov-25 14:33N 27°41' W 015°21'1818.5
2016-Nov-25 13:33N 27°59' W 015°18'1010.0
2016-Nov-25 12:31N 28°08' W 015°25'0 0.0
2016-Nov-25 11:31N 28°08' W 015°25'0 0.0
2016-Nov-25 10:31N 28°08' W 015°25'0 0.0
2016-Nov-25 09:31N 28°08' W 015°25'0 0.0
2016-Nov-25 08:31N 28°08' W 015°25'0 0.0
2016-Nov-25 07:31N 28°08' W 015°25'0 0.0
2016-Nov-25 06:31N 28°08' W 015°25'0 0.0
2016-Nov-25 05:31N 28°08' W 015°25'0 0.0
2016-Nov-25 04:31N 28°08' W 015°25'0 0.0
2016-Nov-25 03:31N 28°08' W 015°25'0 0.0
2016-Nov-25 02:31N 28°08' W 015°25'2 1.8
2016-Nov-25 01:33N 28°07' W 015°23'1514.6
2016-Nov-25 00:33N 28°21' W 015°19'1918.7
2016-Nov-24 23:33N 28°39' W 015°14'1919.0
2016-Nov-24 22:32N 28°58' W 015°08'  
2016-Nov-21 17:33N 49°51' W 003°20'5216.9
2016-Nov-21 14:30N 50°02' W 002°02'1515.8
2016-Nov-21 13:33N 49°57' W 001°40'1515.4
2016-Nov-21 12:33N 49°51' W 001°18'1515.3
2016-Nov-21 11:33N 49°45' W 000°56'1716.9
2016-Nov-21 10:33N 49°38' W 000°32'2914.3
2016-Nov-21 08:33N 49°28' E 000°09'0 0.0
2016-Nov-21 07:33N 49°28' E 000°09'0 0.0
2016-Nov-21 05:33N 49°28' E 000°09'0 0.0
2016-Nov-21 04:33N 49°28' E 000°09'0 0.0
2016-Nov-21 02:33N 49°28' E 000°09'0 0.0
2016-Nov-21 00:33N 49°28' E 000°09'1 0.4
2016-Nov-20 22:33N 49°28' E 000°08'1110.5
2016-Nov-20 21:33N 49°32' W 000°07'6115.3
2016-Nov-20 17:33N 50°31' E 000°16'1816.7
2016-Nov-20 16:29N 50°37' E 000°42'2914.9
2016-Nov-20 14:33N 50°55' E 001°18'1313.2
2016-Nov-20 13:33N 51°05' E 001°32'1414.2
2016-Nov-20 12:33N 51°15' E 001°48'3411.3
2016-Nov-20 09:33N 51°22' E 002°41'10 9.6
2016-Nov-20 08:33N 51°23' E 002°56'1414.3
2016-Nov-20 07:33N 51°24' E 003°19'1211.9
2016-Nov-20 06:33N 51°26' E 003°38'1211.9
2016-Nov-20 05:33N 51°23' E 003°56'8 7.9
2016-Nov-20 04:33N 51°22' E 004°09'6 6.5
2016-Nov-20 03:33N 51°18' E 004°16'1 0.5
2016-Nov-20 01:33N 51°17' E 004°15'0 0.0
2016-Nov-19 23:33N 51°17' E 004°15'0 0.0
2016-Nov-19 22:33N 51°17' E 004°15'0 0.0
2016-Nov-19 20:33N 51°17' E 004°15'0 0.0
2016-Nov-19 19:33N 51°17' E 004°15'  

Dump ship's entire track history